sensor_id;sensor_type;location;lat;lon;timestamp;P1;durP1;ratioP1;P2;durP2;ratioP2
74503;SDS011;62988;55.776;37.544;2023-05-10T00:01:41;15.55;;;4.07;;
74503;SDS011;62988;55.776;37.544;2023-05-10T00:04:07;19.60;;;5.20;;
74503;SDS011;62988;55.776;37.544;2023-05-10T00:06:32;15.00;;;5.13;;
74503;SDS011;62988;55.776;37.544;2023-05-10T00:08:58;18.30;;;5.00;;
74503;SDS011;62988;55.776;37.544;2023-05-10T00:11:23;12.52;;;5.22;;
74503;SDS011;62988;55.776;37.544;2023-05-10T00:13:48;26.70;;;6.47;;
74503;SDS011;62988;55.776;37.544;2023-05-10T00:16:14;17.65;;;4.80;;
74503;SDS011;62988;55.776;37.544;2023-05-10T00:18:39;13.38;;;4.32;;
74503;SDS011;62988;55.776;37.544;2023-05-10T00:21:05;14.68;;;4.05;;
74503;SDS011;62988;55.776;37.544;2023-05-10T00:23:31;13.02;;;4.15;;
74503;SDS011;62988;55.776;37.544;2023-05-10T00:25:56;15.47;;;5.57;;
74503;SDS011;62988;55.776;37.544;2023-05-10T00:28:21;14.40;;;3.95;;
74503;SDS011;62988;55.776;37.544;2023-05-10T00:30:47;17.38;;;4.85;;
74503;SDS011;62988;55.776;37.544;2023-05-10T00:33:12;10.00;;;3.00;;
74503;SDS011;62988;55.776;37.544;2023-05-10T00:35:38;24.90;;;5.53;;
74503;SDS011;62988;55.776;37.544;2023-05-10T00:38:03;18.02;;;4.57;;
74503;SDS011;62988;55.776;37.544;2023-05-10T00:40:28;18.00;;;4.28;;
74503;SDS011;62988;55.776;37.544;2023-05-10T00:42:55;23.35;;;4.30;;
74503;SDS011;62988;55.776;37.544;2023-05-10T00:45:21;18.02;;;3.42;;
74503;SDS011;62988;55.776;37.544;2023-05-10T00:47:46;6.53;;;2.60;;
74503;SDS011;62988;55.776;37.544;2023-05-10T00:50:11;7.38;;;2.55;;
74503;SDS011;62988;55.776;37.544;2023-05-10T00:52:37;9.10;;;3.17;;
74503;SDS011;62988;55.776;37.544;2023-05-10T00:55:02;9.82;;;3.05;;
74503;SDS011;62988;55.776;37.544;2023-05-10T00:57:29;8.15;;;3.00;;
74503;SDS011;62988;55.776;37.544;2023-05-10T00:59:54;8.98;;;2.80;;
74503;SDS011;62988;55.776;37.544;2023-05-10T01:02:19;9.67;;;3.40;;
74503;SDS011;62988;55.776;37.544;2023-05-10T01:04:45;10.73;;;4.20;;
74503;SDS011;62988;55.776;37.544;2023-05-10T01:07:10;9.85;;;3.53;;
74503;SDS011;62988;55.776;37.544;2023-05-10T01:09:36;12.10;;;3.47;;
74503;SDS011;62988;55.776;37.544;2023-05-10T01:12:01;9.10;;;3.20;;
74503;SDS011;62988;55.776;37.544;2023-05-10T01:14:27;12.55;;;2.95;;
74503;SDS011;62988;55.776;37.544;2023-05-10T01:16:53;6.50;;;3.40;;
74503;SDS011;62988;55.776;37.544;2023-05-10T01:19:20;10.38;;;3.10;;
74503;SDS011;62988;55.776;37.544;2023-05-10T01:21:49;6.53;;;3.22;;
74503;SDS011;62988;55.776;37.544;2023-05-10T01:27:11;7.32;;;3.50;;
74503;SDS011;62988;55.776;37.544;2023-05-10T01:35:16;9.77;;;3.55;;
74503;SDS011;62988;55.776;37.544;2023-05-10T01:37:45;7.57;;;3.13;;
74503;SDS011;62988;55.776;37.544;2023-05-10T01:40:32;7.30;;;2.60;;
74503;SDS011;62988;55.776;37.544;2023-05-10T01:43:02;5.43;;;2.67;;
74503;SDS011;62988;55.776;37.544;2023-05-10T01:45:37;8.55;;;2.90;;
74503;SDS011;62988;55.776;37.544;2023-05-10T01:50:30;6.40;;;2.90;;
74503;SDS011;62988;55.776;37.544;2023-05-10T01:52:57;6.93;;;2.88;;
74503;SDS011;62988;55.776;37.544;2023-05-10T01:55:24;6.22;;;2.75;;
74503;SDS011;62988;55.776;37.544;2023-05-10T01:57:51;6.25;;;2.95;;
74503;SDS011;62988;55.776;37.544;2023-05-10T02:00:18;5.18;;;3.15;;
74503;SDS011;62988;55.776;37.544;2023-05-10T02:02:46;5.75;;;3.25;;
74503;SDS011;62988;55.776;37.544;2023-05-10T02:05:13;6.45;;;3.17;;
74503;SDS011;62988;55.776;37.544;2023-05-10T02:07:38;7.10;;;2.95;;
74503;SDS011;62988;55.776;37.544;2023-05-10T02:10:04;5.85;;;3.50;;
74503;SDS011;62988;55.776;37.544;2023-05-10T02:12:31;7.20;;;4.00;;
74503;SDS011;62988;55.776;37.544;2023-05-10T02:14:57;10.05;;;3.00;;
74503;SDS011;62988;55.776;37.544;2023-05-10T02:17:23;8.27;;;2.95;;
74503;SDS011;62988;55.776;37.544;2023-05-10T02:19:50;10.15;;;3.22;;
74503;SDS011;62988;55.776;37.544;2023-05-10T02:22:16;14.40;;;3.50;;
74503;SDS011;62988;55.776;37.544;2023-05-10T02:24:42;6.65;;;3.08;;
74503;SDS011;62988;55.776;37.544;2023-05-10T02:27:08;6.93;;;3.13;;
74503;SDS011;62988;55.776;37.544;2023-05-10T02:29:35;10.30;;;2.88;;
74503;SDS011;62988;55.776;37.544;2023-05-10T02:32:01;6.47;;;3.20;;
74503;SDS011;62988;55.776;37.544;2023-05-10T02:34:27;11.68;;;3.50;;
74503;SDS011;62988;55.776;37.544;2023-05-10T02:36:53;6.55;;;3.00;;
74503;SDS011;62988;55.776;37.544;2023-05-10T02:39:19;11.57;;;3.38;;
74503;SDS011;62988;55.776;37.544;2023-05-10T02:41:46;10.32;;;2.92;;
74503;SDS011;62988;55.776;37.544;2023-05-10T02:44:11;8.60;;;2.83;;
74503;SDS011;62988;55.776;37.544;2023-05-10T02:46:39;8.80;;;3.13;;
74503;SDS011;62988;55.776;37.544;2023-05-10T02:49:04;10.17;;;3.70;;
74503;SDS011;62988;55.776;37.544;2023-05-10T02:51:31;7.93;;;2.90;;
74503;SDS011;62988;55.776;37.544;2023-05-10T02:53:57;8.63;;;3.15;;
74503;SDS011;62988;55.776;37.544;2023-05-10T02:56:28;10.50;;;3.10;;
74503;SDS011;62988;55.776;37.544;2023-05-10T02:58:54;12.57;;;3.33;;
74503;SDS011;62988;55.776;37.544;2023-05-10T03:01:20;13.13;;;3.78;;
74503;SDS011;62988;55.776;37.544;2023-05-10T03:03:45;19.20;;;4.20;;
74503;SDS011;62988;55.776;37.544;2023-05-10T03:06:10;10.43;;;3.22;;
74503;SDS011;62988;55.776;37.544;2023-05-10T03:08:36;9.07;;;3.83;;
74503;SDS011;62988;55.776;37.544;2023-05-10T03:11:25;11.70;;;3.83;;
74503;SDS011;62988;55.776;37.544;2023-05-10T03:14:01;12.18;;;4.47;;
74503;SDS011;62988;55.776;37.544;2023-05-10T03:16:47;8.48;;;3.53;;
74503;SDS011;62988;55.776;37.544;2023-05-10T03:19:29;14.45;;;3.75;;
74503;SDS011;62988;55.776;37.544;2023-05-10T03:21:56;9.95;;;3.90;;
74503;SDS011;62988;55.776;37.544;2023-05-10T03:24:23;11.48;;;3.67;;
74503;SDS011;62988;55.776;37.544;2023-05-10T03:26:52;10.63;;;4.30;;
74503;SDS011;62988;55.776;37.544;2023-05-10T03:29:19;10.70;;;3.47;;
74503;SDS011;62988;55.776;37.544;2023-05-10T03:31:45;12.30;;;3.95;;
74503;SDS011;62988;55.776;37.544;2023-05-10T03:34:10;15.30;;;4.15;;
74503;SDS011;62988;55.776;37.544;2023-05-10T03:36:36;12.00;;;4.57;;
74503;SDS011;62988;55.776;37.544;2023-05-10T03:39:01;15.57;;;4.15;;
74503;SDS011;62988;55.776;37.544;2023-05-10T03:41:27;13.30;;;4.28;;
74503;SDS011;62988;55.776;37.544;2023-05-10T03:43:53;15.18;;;4.05;;
74503;SDS011;62988;55.776;37.544;2023-05-10T03:46:18;14.03;;;3.23;;
74503;SDS011;62988;55.776;37.544;2023-05-10T03:48:44;18.40;;;3.97;;
74503;SDS011;62988;55.776;37.544;2023-05-10T03:51:09;19.07;;;4.27;;
74503;SDS011;62988;55.776;37.544;2023-05-10T03:53:34;12.47;;;3.97;;
74503;SDS011;62988;55.776;37.544;2023-05-10T03:56:00;14.50;;;4.00;;
74503;SDS011;62988;55.776;37.544;2023-05-10T03:58:26;17.65;;;4.10;;
74503;SDS011;62988;55.776;37.544;2023-05-10T04:00:51;15.37;;;3.87;;
74503;SDS011;62988;55.776;37.544;2023-05-10T04:03:17;23.25;;;5.05;;
74503;SDS011;62988;55.776;37.544;2023-05-10T04:05:42;16.15;;;4.28;;
74503;SDS011;62988;55.776;37.544;2023-05-10T04:08:08;10.23;;;3.85;;
74503;SDS011;62988;55.776;37.544;2023-05-10T04:10:33;10.43;;;3.60;;
74503;SDS011;62988;55.776;37.544;2023-05-10T04:12:58;15.60;;;3.87;;
74503;SDS011;62988;55.776;37.544;2023-05-10T04:15:24;11.43;;;4.30;;
74503;SDS011;62988;55.776;37.544;2023-05-10T04:17:49;16.55;;;3.83;;
74503;SDS011;62988;55.776;37.544;2023-05-10T04:20:15;8.23;;;3.30;;
74503;SDS011;62988;55.776;37.544;2023-05-10T04:22:40;10.68;;;3.22;;
74503;SDS011;62988;55.776;37.544;2023-05-10T04:25:06;18.90;;;4.05;;
74503;SDS011;62988;55.776;37.544;2023-05-10T04:27:32;16.17;;;4.07;;
74503;SDS011;62988;55.776;37.544;2023-05-10T04:29:57;12.07;;;3.37;;
74503;SDS011;62988;55.776;37.544;2023-05-10T04:32:22;9.15;;;3.30;;
74503;SDS011;62988;55.776;37.544;2023-05-10T04:34:48;9.52;;;3.42;;
74503;SDS011;62988;55.776;37.544;2023-05-10T04:37:14;12.95;;;3.53;;
74503;SDS011;62988;55.776;37.544;2023-05-10T04:39:39;12.73;;;3.75;;
74503;SDS011;62988;55.776;37.544;2023-05-10T04:42:04;18.15;;;3.30;;
74503;SDS011;62988;55.776;37.544;2023-05-10T04:44:31;14.32;;;3.28;;
74503;SDS011;62988;55.776;37.544;2023-05-10T04:46:56;8.75;;;3.53;;
74503;SDS011;62988;55.776;37.544;2023-05-10T04:49:22;18.00;;;4.18;;
74503;SDS011;62988;55.776;37.544;2023-05-10T04:51:47;11.35;;;3.38;;
74503;SDS011;62988;55.776;37.544;2023-05-10T04:54:12;17.13;;;3.47;;
74503;SDS011;62988;55.776;37.544;2023-05-10T04:56:38;14.48;;;3.47;;
74503;SDS011;62988;55.776;37.544;2023-05-10T04:59:03;14.23;;;3.45;;
74503;SDS011;62988;55.776;37.544;2023-05-10T05:01:29;11.20;;;3.15;;
74503;SDS011;62988;55.776;37.544;2023-05-10T05:03:54;10.50;;;3.90;;
74503;SDS011;62988;55.776;37.544;2023-05-10T05:06:19;12.90;;;2.92;;
74503;SDS011;62988;55.776;37.544;2023-05-10T05:08:46;9.35;;;3.15;;
74503;SDS011;62988;55.776;37.544;2023-05-10T05:11:11;15.25;;;3.10;;
74503;SDS011;62988;55.776;37.544;2023-05-10T05:13:36;10.50;;;3.03;;
74503;SDS011;62988;55.776;37.544;2023-05-10T05:16:02;17.58;;;2.92;;
74503;SDS011;62988;55.776;37.544;2023-05-10T05:18:27;9.45;;;3.17;;
74503;SDS011;62988;55.776;37.544;2023-05-10T05:20:53;12.77;;;3.28;;
74503;SDS011;62988;55.776;37.544;2023-05-10T05:23:18;10.90;;;3.90;;
74503;SDS011;62988;55.776;37.544;2023-05-10T05:25:45;10.95;;;3.28;;
74503;SDS011;62988;55.776;37.544;2023-05-10T05:28:11;14.02;;;4.53;;
74503;SDS011;62988;55.776;37.544;2023-05-10T05:30:36;12.60;;;3.97;;
74503;SDS011;62988;55.776;37.544;2023-05-10T05:33:01;12.35;;;3.28;;
74503;SDS011;62988;55.776;37.544;2023-05-10T05:35:27;8.48;;;3.22;;
74503;SDS011;62988;55.776;37.544;2023-05-10T05:37:52;20.17;;;4.13;;
74503;SDS011;62988;55.776;37.544;2023-05-10T05:40:18;10.07;;;3.47;;
74503;SDS011;62988;55.776;37.544;2023-05-10T05:42:43;9.60;;;3.40;;
74503;SDS011;62988;55.776;37.544;2023-05-10T05:45:08;11.07;;;3.67;;
74503;SDS011;62988;55.776;37.544;2023-05-10T05:47:37;17.40;;;3.53;;
74503;SDS011;62988;55.776;37.544;2023-05-10T05:50:03;15.07;;;3.08;;
74503;SDS011;62988;55.776;37.544;2023-05-10T05:52:28;11.55;;;3.22;;
74503;SDS011;62988;55.776;37.544;2023-05-10T05:54:54;17.37;;;4.30;;
74503;SDS011;62988;55.776;37.544;2023-05-10T05:57:19;8.82;;;2.70;;
74503;SDS011;62988;55.776;37.544;2023-05-10T05:59:44;11.87;;;3.10;;
74503;SDS011;62988;55.776;37.544;2023-05-10T06:02:10;9.73;;;2.97;;
74503;SDS011;62988;55.776;37.544;2023-05-10T06:04:36;10.70;;;3.40;;
74503;SDS011;62988;55.776;37.544;2023-05-10T06:07:01;6.43;;;2.42;;
74503;SDS011;62988;55.776;37.544;2023-05-10T06:09:26;8.87;;;3.10;;
74503;SDS011;62988;55.776;37.544;2023-05-10T06:11:52;6.72;;;2.53;;
74503;SDS011;62988;55.776;37.544;2023-05-10T06:14:17;5.70;;;2.70;;
74503;SDS011;62988;55.776;37.544;2023-05-10T06:16:45;6.10;;;2.63;;
74503;SDS011;62988;55.776;37.544;2023-05-10T06:19:10;8.43;;;2.97;;
74503;SDS011;62988;55.776;37.544;2023-05-10T06:21:35;7.35;;;2.13;;
74503;SDS011;62988;55.776;37.544;2023-05-10T06:24:01;7.43;;;2.43;;
74503;SDS011;62988;55.776;37.544;2023-05-10T06:26:26;6.40;;;2.20;;
74503;SDS011;62988;55.776;37.544;2023-05-10T06:28:51;5.67;;;2.53;;
74503;SDS011;62988;55.776;37.544;2023-05-10T06:31:17;9.67;;;2.43;;
74503;SDS011;62988;55.776;37.544;2023-05-10T06:33:42;6.95;;;2.22;;
74503;SDS011;62988;55.776;37.544;2023-05-10T06:36:08;8.60;;;2.10;;
74503;SDS011;62988;55.776;37.544;2023-05-10T06:38:33;6.13;;;2.17;;
74503;SDS011;62988;55.776;37.544;2023-05-10T06:40:58;13.33;;;2.53;;
74503;SDS011;62988;55.776;37.544;2023-05-10T06:43:24;7.93;;;3.17;;
74503;SDS011;62988;55.776;37.544;2023-05-10T06:45:51;6.72;;;2.17;;
74503;SDS011;62988;55.776;37.544;2023-05-10T06:48:16;8.00;;;2.35;;
74503;SDS011;62988;55.776;37.544;2023-05-10T06:50:42;9.25;;;1.85;;
74503;SDS011;62988;55.776;37.544;2023-05-10T06:53:07;11.13;;;2.38;;
74503;SDS011;62988;55.776;37.544;2023-05-10T06:55:33;9.10;;;2.25;;
74503;SDS011;62988;55.776;37.544;2023-05-10T06:57:58;3.73;;;1.63;;
74503;SDS011;62988;55.776;37.544;2023-05-10T07:00:23;7.70;;;2.60;;
74503;SDS011;62988;55.776;37.544;2023-05-10T07:02:49;5.97;;;2.25;;
74503;SDS011;62988;55.776;37.544;2023-05-10T07:05:14;4.67;;;2.10;;
74503;SDS011;62988;55.776;37.544;2023-05-10T07:07:40;7.65;;;2.17;;
74503;SDS011;62988;55.776;37.544;2023-05-10T07:10:05;7.30;;;2.30;;
74503;SDS011;62988;55.776;37.544;2023-05-10T07:12:32;6.30;;;2.05;;
74503;SDS011;62988;55.776;37.544;2023-05-10T07:14:57;4.47;;;1.88;;
74503;SDS011;62988;55.776;37.544;2023-05-10T07:17:23;5.35;;;2.00;;
74503;SDS011;62988;55.776;37.544;2023-05-10T07:19:48;6.88;;;2.10;;
74503;SDS011;62988;55.776;37.544;2023-05-10T07:22:17;6.35;;;1.90;;
74503;SDS011;62988;55.776;37.544;2023-05-10T07:24:42;4.10;;;2.22;;
74503;SDS011;62988;55.776;37.544;2023-05-10T07:27:08;6.30;;;1.88;;
74503;SDS011;62988;55.776;37.544;2023-05-10T07:29:34;8.50;;;2.30;;
74503;SDS011;62988;55.776;37.544;2023-05-10T07:31:59;5.65;;;2.40;;
74503;SDS011;62988;55.776;37.544;2023-05-10T07:34:25;5.30;;;2.72;;
74503;SDS011;62988;55.776;37.544;2023-05-10T07:36:50;6.00;;;1.92;;
74503;SDS011;62988;55.776;37.544;2023-05-10T07:39:16;4.53;;;1.92;;
74503;SDS011;62988;55.776;37.544;2023-05-10T07:41:41;5.80;;;1.95;;
74503;SDS011;62988;55.776;37.544;2023-05-10T07:44:07;4.97;;;2.00;;
74503;SDS011;62988;55.776;37.544;2023-05-10T07:46:32;4.43;;;1.67;;
74503;SDS011;62988;55.776;37.544;2023-05-10T07:48:57;5.23;;;1.63;;
74503;SDS011;62988;55.776;37.544;2023-05-10T07:51:23;6.15;;;1.95;;
74503;SDS011;62988;55.776;37.544;2023-05-10T07:53:48;8.33;;;2.03;;
74503;SDS011;62988;55.776;37.544;2023-05-10T07:56:23;7.72;;;2.05;;
74503;SDS011;62988;55.776;37.544;2023-05-10T07:58:50;7.05;;;1.63;;
74503;SDS011;62988;55.776;37.544;2023-05-10T08:01:15;5.78;;;1.77;;
74503;SDS011;62988;55.776;37.544;2023-05-10T08:03:40;7.77;;;2.13;;
74503;SDS011;62988;55.776;37.544;2023-05-10T08:06:06;8.27;;;1.90;;
74503;SDS011;62988;55.776;37.544;2023-05-10T08:08:31;10.25;;;2.15;;
74503;SDS011;62988;55.776;37.544;2023-05-10T08:10:56;5.57;;;1.70;;
74503;SDS011;62988;55.776;37.544;2023-05-10T08:13:22;7.40;;;1.70;;
74503;SDS011;62988;55.776;37.544;2023-05-10T08:15:47;5.23;;;1.70;;
74503;SDS011;62988;55.776;37.544;2023-05-10T08:18:13;5.90;;;2.27;;
74503;SDS011;62988;55.776;37.544;2023-05-10T08:20:38;4.90;;;1.77;;
74503;SDS011;62988;55.776;37.544;2023-05-10T08:23:04;7.23;;;1.97;;
74503;SDS011;62988;55.776;37.544;2023-05-10T08:25:29;5.35;;;2.30;;
74503;SDS011;62988;55.776;37.544;2023-05-10T08:27:54;4.25;;;2.00;;
74503;SDS011;62988;55.776;37.544;2023-05-10T08:30:20;5.22;;;1.95;;
74503;SDS011;62988;55.776;37.544;2023-05-10T08:32:45;6.97;;;2.53;;
74503;SDS011;62988;55.776;37.544;2023-05-10T08:35:11;5.33;;;2.10;;
74503;SDS011;62988;55.776;37.544;2023-05-10T08:37:36;7.77;;;2.33;;
74503;SDS011;62988;55.776;37.544;2023-05-10T08:40:01;6.35;;;2.13;;
74503;SDS011;62988;55.776;37.544;2023-05-10T08:42:28;5.63;;;1.77;;
74503;SDS011;62988;55.776;37.544;2023-05-10T08:44:55;3.72;;;1.60;;
74503;SDS011;62988;55.776;37.544;2023-05-10T08:47:22;7.18;;;2.15;;
74503;SDS011;62988;55.776;37.544;2023-05-10T08:49:47;17.92;;;2.22;;
74503;SDS011;62988;55.776;37.544;2023-05-10T08:52:16;3.15;;;1.65;;
74503;SDS011;62988;55.776;37.544;2023-05-10T08:54:42;6.68;;;2.30;;
74503;SDS011;62988;55.776;37.544;2023-05-10T08:57:08;4.25;;;1.88;;
74503;SDS011;62988;55.776;37.544;2023-05-10T08:59:34;7.50;;;1.75;;
74503;SDS011;62988;55.776;37.544;2023-05-10T09:01:59;6.13;;;2.08;;
74503;SDS011;62988;55.776;37.544;2023-05-10T09:04:25;7.57;;;2.83;;
74503;SDS011;62988;55.776;37.544;2023-05-10T09:06:51;8.50;;;4.30;;
74503;SDS011;62988;55.776;37.544;2023-05-10T09:09:17;4.60;;;1.70;;
74503;SDS011;62988;55.776;37.544;2023-05-10T09:11:42;6.70;;;2.03;;
74503;SDS011;62988;55.776;37.544;2023-05-10T09:14:08;3.22;;;1.60;;
74503;SDS011;62988;55.776;37.544;2023-05-10T09:16:34;3.45;;;1.45;;
74503;SDS011;62988;55.776;37.544;2023-05-10T09:18:59;5.22;;;1.70;;
74503;SDS011;62988;55.776;37.544;2023-05-10T09:21:25;5.05;;;1.80;;
74503;SDS011;62988;55.776;37.544;2023-05-10T09:23:50;3.35;;;1.35;;
74503;SDS011;62988;55.776;37.544;2023-05-10T09:26:21;6.75;;;1.40;;
74503;SDS011;62988;55.776;37.544;2023-05-10T09:28:51;7.03;;;1.70;;
74503;SDS011;62988;55.776;37.544;2023-05-10T09:31:17;6.80;;;1.55;;
74503;SDS011;62988;55.776;37.544;2023-05-10T09:33:46;5.40;;;1.38;;
74503;SDS011;62988;55.776;37.544;2023-05-10T09:38:50;6.68;;;1.58;;
74503;SDS011;62988;55.776;37.544;2023-05-10T09:41:25;4.90;;;1.83;;
74503;SDS011;62988;55.776;37.544;2023-05-10T09:43:55;3.05;;;1.40;;
74503;SDS011;62988;55.776;37.544;2023-05-10T09:46:21;17.88;;;2.17;;
74503;SDS011;62988;55.776;37.544;2023-05-10T09:48:47;5.82;;;1.80;;
74503;SDS011;62988;55.776;37.544;2023-05-10T09:51:19;3.42;;;1.60;;
74503;SDS011;62988;55.776;37.544;2023-05-10T09:53:45;5.88;;;2.08;;
74503;SDS011;62988;55.776;37.544;2023-05-10T09:56:11;4.00;;;1.88;;
74503;SDS011;62988;55.776;37.544;2023-05-10T09:58:36;5.15;;;1.63;;
74503;SDS011;62988;55.776;37.544;2023-05-10T10:01:03;2.90;;;1.27;;
74503;SDS011;62988;55.776;37.544;2023-05-10T10:03:28;3.90;;;1.70;;
74503;SDS011;62988;55.776;37.544;2023-05-10T10:05:55;5.32;;;1.92;;
74503;SDS011;62988;55.776;37.544;2023-05-10T10:08:21;11.63;;;2.85;;
74503;SDS011;62988;55.776;37.544;2023-05-10T10:10:46;6.28;;;2.80;;
74503;SDS011;62988;55.776;37.544;2023-05-10T10:13:12;2.70;;;1.60;;
74503;SDS011;62988;55.776;37.544;2023-05-10T10:15:38;4.43;;;1.77;;
74503;SDS011;62988;55.776;37.544;2023-05-10T10:18:03;11.25;;;1.95;;
74503;SDS011;62988;55.776;37.544;2023-05-10T10:20:30;3.97;;;1.80;;
74503;SDS011;62988;55.776;37.544;2023-05-10T10:22:55;5.13;;;2.10;;
74503;SDS011;62988;55.776;37.544;2023-05-10T10:25:21;6.80;;;1.95;;
74503;SDS011;62988;55.776;37.544;2023-05-10T10:28:31;4.30;;;1.67;;
74503;SDS011;62988;55.776;37.544;2023-05-10T10:30:43;7.35;;;1.67;;
74503;SDS011;62988;55.776;37.544;2023-05-10T10:33:13;7.07;;;1.77;;
74503;SDS011;62988;55.776;37.544;2023-05-10T10:35:43;3.70;;;1.42;;
74503;SDS011;62988;55.776;37.544;2023-05-10T10:38:10;3.28;;;1.58;;
74503;SDS011;62988;55.776;37.544;2023-05-10T10:40:37;11.88;;;2.13;;
74503;SDS011;62988;55.776;37.544;2023-05-10T10:43:22;5.55;;;1.85;;
74503;SDS011;62988;55.776;37.544;2023-05-10T10:48:36;7.60;;;2.42;;
74503;SDS011;62988;55.776;37.544;2023-05-10T10:51:01;6.47;;;1.67;;
74503;SDS011;62988;55.776;37.544;2023-05-10T10:53:27;6.43;;;1.80;;
74503;SDS011;62988;55.776;37.544;2023-05-10T10:56:04;7.85;;;1.70;;
74503;SDS011;62988;55.776;37.544;2023-05-10T10:58:31;8.85;;;1.80;;
74503;SDS011;62988;55.776;37.544;2023-05-10T11:01:18;5.20;;;1.63;;
74503;SDS011;62988;55.776;37.544;2023-05-10T11:06:40;4.18;;;1.40;;
74503;SDS011;62988;55.776;37.544;2023-05-10T11:09:07;4.13;;;1.20;;
74503;SDS011;62988;55.776;37.544;2023-05-10T11:11:34;5.85;;;1.27;;
74503;SDS011;62988;55.776;37.544;2023-05-10T11:14:03;3.88;;;1.30;;
74503;SDS011;62988;55.776;37.544;2023-05-10T11:16:28;4.85;;;1.52;;
74503;SDS011;62988;55.776;37.544;2023-05-10T11:19:12;3.10;;;1.40;;
74503;SDS011;62988;55.776;37.544;2023-05-10T11:21:47;3.80;;;1.58;;
74503;SDS011;62988;55.776;37.544;2023-05-10T11:26:38;5.07;;;1.37;;
74503;SDS011;62988;55.776;37.544;2023-05-10T11:29:03;15.80;;;2.33;;
74503;SDS011;62988;55.776;37.544;2023-05-10T11:31:30;14.00;;;2.00;;
74503;SDS011;62988;55.776;37.544;2023-05-10T11:33:56;13.90;;;1.63;;
74503;SDS011;62988;55.776;37.544;2023-05-10T11:36:25;7.25;;;1.90;;
74503;SDS011;62988;55.776;37.544;2023-05-10T11:38:52;2.95;;;1.50;;
74503;SDS011;62988;55.776;37.544;2023-05-10T11:41:18;11.35;;;1.73;;
74503;SDS011;62988;55.776;37.544;2023-05-10T11:43:45;3.88;;;1.30;;
74503;SDS011;62988;55.776;37.544;2023-05-10T11:46:11;4.90;;;1.67;;
74503;SDS011;62988;55.776;37.544;2023-05-10T11:48:40;5.97;;;1.50;;
74503;SDS011;62988;55.776;37.544;2023-05-10T11:51:06;3.38;;;1.35;;
74503;SDS011;62988;55.776;37.544;2023-05-10T11:53:32;4.15;;;1.55;;
74503;SDS011;62988;55.776;37.544;2023-05-10T11:58:30;5.45;;;1.58;;
74503;SDS011;62988;55.776;37.544;2023-05-10T12:00:55;3.28;;;1.33;;
74503;SDS011;62988;55.776;37.544;2023-05-10T12:03:21;2.28;;;1.30;;
74503;SDS011;62988;55.776;37.544;2023-05-10T12:05:46;5.45;;;1.45;;
74503;SDS011;62988;55.776;37.544;2023-05-10T12:08:14;5.40;;;1.50;;
74503;SDS011;62988;55.776;37.544;2023-05-10T12:10:40;3.22;;;1.35;;
74503;SDS011;62988;55.776;37.544;2023-05-10T12:13:10;6.75;;;1.60;;
74503;SDS011;62988;55.776;37.544;2023-05-10T12:15:35;8.57;;;1.83;;
74503;SDS011;62988;55.776;37.544;2023-05-10T12:18:01;3.90;;;1.40;;
74503;SDS011;62988;55.776;37.544;2023-05-10T12:20:27;9.32;;;1.60;;
74503;SDS011;62988;55.776;37.544;2023-05-10T12:22:54;7.80;;;1.67;;
74503;SDS011;62988;55.776;37.544;2023-05-10T12:25:20;4.47;;;1.50;;
74503;SDS011;62988;55.776;37.544;2023-05-10T12:27:50;4.07;;;1.40;;
74503;SDS011;62988;55.776;37.544;2023-05-10T12:30:22;4.45;;;1.40;;
74503;SDS011;62988;55.776;37.544;2023-05-10T12:32:48;4.45;;;1.67;;
74503;SDS011;62988;55.776;37.544;2023-05-10T12:35:13;4.28;;;1.30;;
74503;SDS011;62988;55.776;37.544;2023-05-10T12:37:39;5.38;;;1.40;;
74503;SDS011;62988;55.776;37.544;2023-05-10T12:40:07;3.30;;;1.38;;
74503;SDS011;62988;55.776;37.544;2023-05-10T12:44:58;3.03;;;1.43;;
74503;SDS011;62988;55.776;37.544;2023-05-10T12:47:24;7.43;;;1.55;;
74503;SDS011;62988;55.776;37.544;2023-05-10T12:49:49;3.30;;;1.48;;
74503;SDS011;62988;55.776;37.544;2023-05-10T12:52:16;6.35;;;1.40;;
74503;SDS011;62988;55.776;37.544;2023-05-10T12:54:41;2.37;;;1.30;;
74503;SDS011;62988;55.776;37.544;2023-05-10T12:57:06;4.13;;;1.90;;
74503;SDS011;62988;55.776;37.544;2023-05-10T12:59:32;5.18;;;1.40;;
74503;SDS011;62988;55.776;37.544;2023-05-10T13:01:57;6.53;;;1.33;;
74503;SDS011;62988;55.776;37.544;2023-05-10T13:04:22;5.82;;;1.45;;
74503;SDS011;62988;55.776;37.544;2023-05-10T13:06:48;6.85;;;1.42;;
74503;SDS011;62988;55.776;37.544;2023-05-10T13:09:13;3.47;;;1.30;;
74503;SDS011;62988;55.776;37.544;2023-05-10T13:11:39;14.07;;;1.88;;
74503;SDS011;62988;55.776;37.544;2023-05-10T13:14:04;4.15;;;1.30;;
74503;SDS011;62988;55.776;37.544;2023-05-10T13:16:30;12.23;;;5.38;;
74503;SDS011;62988;55.776;37.544;2023-05-10T13:18:56;5.15;;;2.10;;
74503;SDS011;62988;55.776;37.544;2023-05-10T13:21:21;4.20;;;1.50;;
74503;SDS011;62988;55.776;37.544;2023-05-10T13:23:47;4.10;;;1.45;;
74503;SDS011;62988;55.776;37.544;2023-05-10T13:26:12;4.80;;;1.67;;
74503;SDS011;62988;55.776;37.544;2023-05-10T13:28:38;5.95;;;1.30;;
74503;SDS011;62988;55.776;37.544;2023-05-10T13:31:04;3.40;;;1.50;;
74503;SDS011;62988;55.776;37.544;2023-05-10T13:33:30;5.72;;;2.85;;
74503;SDS011;62988;55.776;37.544;2023-05-10T13:35:55;5.22;;;1.48;;
74503;SDS011;62988;55.776;37.544;2023-05-10T13:38:20;5.57;;;1.58;;
74503;SDS011;62988;55.776;37.544;2023-05-10T13:40:46;3.17;;;1.60;;
74503;SDS011;62988;55.776;37.544;2023-05-10T13:43:11;6.88;;;1.60;;
74503;SDS011;62988;55.776;37.544;2023-05-10T13:45:36;6.17;;;1.53;;
74503;SDS011;62988;55.776;37.544;2023-05-10T13:48:02;7.73;;;4.23;;
74503;SDS011;62988;55.776;37.544;2023-05-10T13:50:27;3.40;;;1.50;;
74503;SDS011;62988;55.776;37.544;2023-05-10T13:52:53;5.40;;;1.70;;
74503;SDS011;62988;55.776;37.544;2023-05-10T13:55:18;4.37;;;1.73;;
74503;SDS011;62988;55.776;37.544;2023-05-10T13:57:43;5.55;;;1.92;;
74503;SDS011;62988;55.776;37.544;2023-05-10T14:00:09;4.30;;;1.60;;
74503;SDS011;62988;55.776;37.544;2023-05-10T14:02:34;6.10;;;1.30;;
74503;SDS011;62988;55.776;37.544;2023-05-10T14:05:00;6.03;;;1.17;;
74503;SDS011;62988;55.776;37.544;2023-05-10T14:07:25;5.10;;;1.70;;
74503;SDS011;62988;55.776;37.544;2023-05-10T14:09:50;4.93;;;1.35;;
74503;SDS011;62988;55.776;37.544;2023-05-10T14:12:16;5.37;;;1.60;;
74503;SDS011;62988;55.776;37.544;2023-05-10T14:14:41;6.38;;;1.58;;
74503;SDS011;62988;55.776;37.544;2023-05-10T14:17:07;7.35;;;1.88;;
74503;SDS011;62988;55.776;37.544;2023-05-10T14:19:32;3.78;;;1.50;;
74503;SDS011;62988;55.776;37.544;2023-05-10T14:21:59;5.45;;;1.75;;
74503;SDS011;62988;55.776;37.544;2023-05-10T14:24:24;5.32;;;1.30;;
74503;SDS011;62988;55.776;37.544;2023-05-10T14:26:50;6.95;;;1.88;;
74503;SDS011;62988;55.776;37.544;2023-05-10T14:29:18;7.53;;;1.65;;
74503;SDS011;62988;55.776;37.544;2023-05-10T14:31:44;8.95;;;1.80;;
74503;SDS011;62988;55.776;37.544;2023-05-10T14:34:09;5.07;;;2.38;;
74503;SDS011;62988;55.776;37.544;2023-05-10T14:36:34;6.13;;;1.90;;
74503;SDS011;62988;55.776;37.544;2023-05-10T14:39:00;4.70;;;1.87;;
74503;SDS011;62988;55.776;37.544;2023-05-10T14:41:25;2.33;;;1.30;;
74503;SDS011;62988;55.776;37.544;2023-05-10T14:43:50;4.10;;;1.40;;
74503;SDS011;62988;55.776;37.544;2023-05-10T14:46:16;5.00;;;1.73;;
74503;SDS011;62988;55.776;37.544;2023-05-10T14:48:41;3.75;;;1.50;;
74503;SDS011;62988;55.776;37.544;2023-05-10T14:51:07;2.87;;;1.40;;
74503;SDS011;62988;55.776;37.544;2023-05-10T14:53:32;6.57;;;1.50;;